Morristown, Ohio
Current Conditions -  °F | °C
As of 9:53 PM on Monday 20 Oct 2014 (Local Time) from KHLG Reporting Station
Overcast Overcast  
Wind Chill: 51°   Ceiling: 5500
Heat Index: 51°   Visibility: 10mi
Dew Point: 46°   Wind: 8mph
Humidity: 83%   Direction: 210°SSW
Pressure: 29.89"   Gusts: NA
Location:  40.06°N, 81.07°W
Report Text: KHLG 210153Z AUTO 21007KT 10SM BKN055 OVC070 11/08 A2989 RMK AO2 RAE06 SLP125 P0000 T01060078
Loading
Personal Weather Stations






























Interactive Weather Map
Tropical Storm Tracking
New forecast layout! Learn more

10-Day Weather Forecast

Advertisements
Track Severe Weather on mobile